TimeMST,TemperatureF,Dew PointF,Humidity,Sea Level PressureIn,VisibilityMPH,Wind Direction,Wind SpeedMPH,Gust SpeedMPH,PrecipitationIn,Events,Conditions,WindDirDegrees,DateUTC
12:53 AM,24.1,21.9,91,29.81,6.0,East,9.2,-,N/A,,Scattered Clouds,80,2012-11-30 07:53:00
1:53 AM,23.0,21.0,92,29.80,6.0,NE,3.5,-,N/A,,Clear,50,2012-11-30 08:53:00
2:53 AM,21.9,19.9,92,29.82,6.0,ENE,3.5,-,N/A,,Clear,70,2012-11-30 09:53:00
3:53 AM,19.9,18.0,92,29.78,5.0,Calm,Calm,-,N/A,,Clear,0,2012-11-30 10:53:00
4:53 AM,21.9,19.9,92,29.76,6.0,Calm,Calm,-,N/A,,Clear,0,2012-11-30 11:53:00
5:53 AM,21.9,19.0,89,29.75,7.0,East,6.9,-,N/A,,Clear,80,2012-11-30 12:53:00
6:53 AM,23.0,19.9,88,29.74,7.0,NE,3.5,-,N/A,,Scattered Clouds,50,2012-11-30 13:53:00
7:53 AM,23.0,21.0,92,29.72,7.0,East,4.6,-,N/A,,Scattered Clouds,80,2012-11-30 14:53:00
8:53 AM,24.1,21.0,88,29.71,6.0,East,6.9,-,N/A,,Clear,80,2012-11-30 15:53:00
9:53 AM,25.0,21.9,88,29.70,7.0,East,5.8,-,N/A,,Partly Cloudy,80,2012-11-30 16:53:00
10:53 AM,28.0,24.1,85,29.66,8.0,Calm,Calm,-,N/A,,Mostly Cloudy,0,2012-11-30 17:53:00
11:53 AM,28.9,25.0,85,29.64,9.0,Calm,Calm,-,N/A,,Partly Cloudy,0,2012-11-30 18:53:00
12:53 PM,30.9,26.1,82,29.62,9.0,Calm,Calm,-,N/A,,Overcast,0,2012-11-30 19:53:00
1:53 PM,32.0,27.0,82,29.61,8.0,Calm,Calm,-,N/A,,Overcast,0,2012-11-30 20:53:00
2:53 PM,32.0,28.9,88,29.62,7.0,ESE,3.5,-,0.00,,Overcast,110,2012-11-30 21:53:00
3:53 PM,33.1,30.9,92,29.63,5.0,Calm,Calm,-,0.03,Rain,Light Rain,0,2012-11-30 22:53:00
4:53 PM,32.0,30.0,92,29.64,5.0,NW,12.7,17.3,0.00,,Clear,310,2012-11-30 23:53:00
5:53 PM,33.1,30.0,89,29.67,10.0,West,6.9,-,N/A,,Partly Cloudy,270,2012-12-01 00:53:00
6:42 PM,32.0,28.4,87,29.61,10.0,WNW,9.2,-,N/A,,Scattered Clouds,300,2012-12-01 01:42:00
6:53 PM,30.0,27.0,88,29.71,10.0,NW,10.4,-,N/A,,Partly Cloudy,320,2012-12-01 01:53:00
7:53 PM,24.1,21.0,88,29.76,7.0,West,6.9,-,N/A,,Scattered Clouds,270,2012-12-01 02:53:00
8:40 PM,23.0,19.4,86,29.67,8.0,WNW,10.4,-,N/A,,Mostly Cloudy,290,2012-12-01 03:40:00
8:53 PM,23.0,19.9,88,29.77,8.0,WNW,8.1,-,N/A,,Overcast,290,2012-12-01 03:53:00
9:53 PM,21.9,19.9,92,29.79,7.0,WNW,9.2,-,N/A,,Overcast,300,2012-12-01 04:53:00
10:53 PM,21.0,19.0,92,29.79,7.0,NW,8.1,-,N/A,,Overcast,310,2012-12-01 05:53:00
11:53 PM,19.9,18.0,92,29.81,6.0,NW,5.8,-,N/A,,Overcast,310,2012-12-01 06:53:00